Time;durP1;ratioP1;P1;durP2;ratioP2;P2;SDS_P1;SDS_P2;PMS_P1;PMS_P2;Temp;Humidity;BMP_temperature;BMP_pressure;BME280_temperature;BME280_humidity;BME280_pressure;Samples;Min_cycle;Max_cycle;Signal;HPM_P1;HPM_P2
2024/04/07 11:46:36;;;;;;;0.40;0.32;;;;;;;27.01;34.76;101176.88;15640838;28;20434;-52
2024/04/07 11:54:10;;;;;;;0.00;0.00;;;;;;;28.14;32.22;101164.72;15624407;28;20120;-51
2024/04/07 12:01:45;;;;;;;0.00;0.00;;;;;;;27.28;34.05;101164.97;15660200;28;20533;-55
2024/04/07 12:09:21;;;;;;;0.00;0.00;;;;;;;27.25;33.35;101169.16;15632504;28;20037;-48
2024/04/07 12:16:58;;;;;;;0.00;0.00;;;;;;;26.64;33.62;101165.00;15630738;28;20037;-49
2024/04/07 12:24:33;;;;;;;0.00;0.00;;;;;;;26.63;33.27;101155.94;15639706;28;20038;-51
2024/04/07 12:32:13;;;;;;;0.15;0.15;;;;;;;28.20;31.65;101168.94;15630573;28;20038;-52
2024/04/07 12:39:48;;;;;;;0.03;0.03;;;;;;;28.20;34.81;101179.97;15663743;28;20406;-50
2024/04/07 12:47:25;;;;;;;7.60;0.43;;;;;;;27.58;31.88;101164.22;15655686;28;20083;-52
2024/04/07 12:54:58;;;;;;;2.28;0.90;;;;;;;26.51;33.57;101139.13;15625187;28;20036;-51
2024/04/07 13:02:33;;;;;;;4.75;0.57;;;;;;;27.21;33.01;101124.88;15628413;28;20548;-53
2024/04/07 13:10:08;;;;;;;0.10;0.10;;;;;;;27.04;32.77;101112.88;15617154;28;20041;-53
2024/04/07 13:17:47;;;;;;;0.95;0.30;;;;;;;27.51;32.86;101103.16;15621803;28;20432;-48
2024/04/07 13:25:22;;;;;;;0.70;0.40;;;;;;;26.63;34.74;101098.13;15631027;28;20037;-51
2024/04/07 13:32:57;;;;;;;0.00;0.00;;;;;;;27.05;33.44;101095.22;15617436;28;20033;-51
2024/04/07 13:40:31;;;;;;;0.00;0.00;;;;;;;26.48;34.56;101089.34;15636668;28;20135;-52
2024/04/07 13:48:08;;;;;;;0.00;0.00;;;;;;;26.43;35.06;101079.28;15650867;28;20056;-48
2024/04/07 13:55:41;;;;;;;0.15;0.15;;;;;;;27.20;33.93;101084.66;15665970;28;20067;-50
2024/04/07 14:03:16;;;;;;;0.00;0.00;;;;;;;26.51;35.54;101092.31;15656273;28;20454;-52
2024/04/07 14:10:50;;;;;;;0.00;0.00;;;;;;;26.80;34.84;101075.41;15664359;28;20034;-51
2024/04/07 14:18:26;;;;;;;0.10;0.10;;;;;;;26.16;34.85;101078.16;15629037;28;20061;-49
2024/04/07 14:26:00;;;;;;;0.00;0.00;;;;;;;25.67;36.09;101071.38;15649936;28;20079;-53
2024/04/07 14:33:40;;;;;;;0.08;0.08;;;;;;;25.91;36.84;101067.66;15637855;28;20120;-48
2024/04/07 14:41:14;;;;;;;0.00;0.00;;;;;;;25.19;36.71;101029.69;15664274;28;20053;-52
2024/04/07 14:48:50;;;;;;;0.00;0.00;;;;;;;24.79;38.08;101047.59;15643107;28;20042;-52
2024/04/07 14:56:27;;;;;;;0.10;0.05;;;;;;;25.15;37.81;101050.63;15643496;28;20067;-51
2024/04/07 15:04:02;;;;;;;2.95;0.95;;;;;;;25.43;37.80;101051.50;15659323;28;20036;-55
2024/04/07 15:11:37;;;;;;;0.08;0.08;;;;;;;25.13;38.21;101047.34;15666669;28;20049;-51
2024/04/07 15:19:12;;;;;;;0.70;0.35;;;;;;;24.73;39.55;101046.06;15614273;23;20041;-52
2024/04/07 15:26:59;;;;;;;0.63;0.50;;;;;;;25.03;38.91;101034.56;15603324;28;20473;-51
2024/04/07 15:34:34;;;;;;;0.98;0.20;;;;;;;24.49;39.79;101035.97;15617141;28;20258;-51
2024/04/07 15:42:10;;;;;;;2.72;0.93;;;;;;;24.42;40.04;101038.25;15603632;28;20056;-51
2024/04/07 15:49:46;;;;;;;0.30;0.30;;;;;;;24.47;40.37;101051.09;15612676;28;20041;-51
2024/04/07 15:57:20;;;;;;;0.52;0.35;;;;;;;24.38;41.18;101032.53;15612481;28;20037;-51
2024/04/07 16:04:56;;;;;;;4.68;0.45;;;;;;;23.86;41.70;101033.44;15610191;28;20029;-51
2024/04/07 16:12:31;;;;;;;0.63;0.43;;;;;;;24.21;41.54;101015.75;15601390;28;20113;-52
2024/04/07 16:20:09;;;;;;;0.17;0.00;;;;;;;24.26;41.51;101018.41;15615169;28;20047;-51
2024/04/07 16:27:43;;;;;;;0.00;0.00;;;;;;;23.93;42.87;101025.69;15607967;28;20046;-51
2024/04/07 16:35:18;;;;;;;0.10;0.10;;;;;;;23.72;42.95;101013.34;15610006;28;20148;-51
2024/04/07 16:42:52;;;;;;;0.00;0.00;;;;;;;23.77;42.28;101025.03;15616569;28;20560;-52
2024/04/07 16:50:27;;;;;;;0.20;0.05;;;;;;;23.52;42.77;101028.06;15616493;28;20101;-53
2024/04/07 16:58:02;;;;;;;0.22;0.22;;;;;;;23.70;42.38;101015.56;15609744;28;20469;-50
2024/04/07 17:05:38;;;;;;;0.30;0.20;;;;;;;23.41;42.69;101014.47;15622869;28;20119;-52
2024/04/07 17:13:13;;;;;;;0.00;0.00;;;;;;;23.30;43.74;101021.13;15630887;28;20186;-53
2024/04/07 17:20:49;;;;;;;1.20;1.10;;;;;;;23.55;42.89;101013.75;15624633;28;20042;-51
2024/04/07 17:28:23;;;;;;;0.00;0.00;;;;;;;23.16;43.16;101015.50;15616030;28;20124;-53
2024/04/07 17:35:58;;;;;;;0.77;0.45;;;;;;;22.88;44.35;101003.38;15618975;28;20060;-52
2024/04/07 17:43:32;;;;;;;0.57;0.47;;;;;;;22.97;44.42;100994.59;15616967;28;20050;-52
2024/04/07 17:51:07;;;;;;;1.65;0.80;;;;;;;22.67;44.34;100978.13;15612378;28;20176;-50
2024/04/07 17:58:44;;;;;;;0.10;0.10;;;;;;;22.92;44.54;100987.25;15595160;28;20045;-50
2024/04/07 18:06:19;;;;;;;0.00;0.00;;;;;;;22.62;45.11;101000.03;15620833;28;20037;-52
2024/04/07 18:13:54;;;;;;;0.10;0.10;;;;;;;22.56;45.30;101001.16;15611290;28;20033;-55
2024/04/07 18:21:29;;;;;;;0.32;0.32;;;;;;;22.11;46.00;100999.50;15612998;28;20033;-52
2024/04/07 18:29:05;;;;;;;0.10;0.10;;;;;;;21.89;45.97;100997.13;15611150;28;20120;-50
2024/04/07 18:36:44;;;;;;;1.33;1.10;;;;;;;22.04;45.97;101010.72;15600616;28;20422;-51
2024/04/07 18:44:21;;;;;;;0.65;0.43;;;;;;;21.66;46.73;101004.03;15604256;28;20096;-49
2024/04/07 18:51:56;;;;;;;0.00;0.00;;;;;;;21.36;47.40;100991.28;15595476;28;20061;-50
2024/04/07 18:59:30;;;;;;;0.10;0.10;;;;;;;21.58;46.64;101002.69;15599632;28;20044;-51
2024/04/07 19:07:08;;;;;;;0.25;0.20;;;;;;;21.32;47.07;100999.22;15609425;28;20046;-51
2024/04/07 19:14:44;;;;;;;0.22;0.22;;;;;;;21.62;46.37;100997.50;15614061;28;20386;-51
2024/04/07 19:22:19;;;;;;;0.10;0.10;;;;;;;21.61;47.46;100991.22;15614618;28;20034;-50
2024/04/07 19:29:54;;;;;;;0.00;0.00;;;;;;;21.32;47.15;100993.75;15608572;28;20045;-51
2024/04/07 19:37:29;;;;;;;0.13;0.13;;;;;;;20.77;49.03;100995.38;15601728;28;20399;-52
2024/04/07 19:45:05;;;;;;;0.00;0.00;;;;;;;20.46;49.82;100994.47;15609362;28;20029;-51
2024/04/07 19:52:40;;;;;;;1.58;1.35;;;;;;;20.97;48.19;100980.09;15608954;28;20061;-51
2024/04/07 20:00:20;;;;;;;1.10;0.93;;;;;;;20.84;48.44;100965.94;15609978;28;20049;-53
2024/04/07 20:07:56;;;;;;;0.22;0.22;;;;;;;20.80;48.49;100967.56;15615059;28;20556;-54
2024/04/07 20:15:30;;;;;;;0.15;0.15;;;;;;;20.67;49.02;100968.09;15640223;28;20120;-55
2024/04/07 20:23:05;;;;;;;0.08;0.05;;;;;;;20.50;49.51;100949.25;15617500;28;20091;-49
2024/04/07 20:30:40;;;;;;;0.00;0.00;;;;;;;20.64;48.90;100950.34;15619139;28;20045;-54
2024/04/07 20:38:16;;;;;;;1.23;0.95;;;;;;;20.83;50.02;100942.44;15611605;28;20037;-53
2024/04/07 20:45:49;;;;;;;0.28;0.22;;;;;;;20.58;51.26;100940.53;15620406;28;20049;-54
2024/04/07 20:53:24;;;;;;;0.57;0.28;;;;;;;20.29;52.53;100923.03;15623973;28;20037;-52
2024/04/07 21:00:58;;;;;;;0.10;0.10;;;;;;;19.86;53.67;100923.22;15608976;28;20573;-50
2024/04/07 21:08:35;;;;;;;0.00;0.00;;;;;;;19.69;54.92;100921.78;15615211;28;20052;-50
2024/04/07 21:16:09;;;;;;;0.38;0.30;;;;;;;19.34;55.45;100876.94;15614147;23;20160;-50
2024/04/07 21:23:44;;;;;;;0.20;0.20;;;;;;;19.24;56.95;100923.97;15610679;28;20038;-53
2024/04/07 21:31:18;;;;;;;0.00;0.00;;;;;;;19.05;57.00;100917.34;15611564;28;20530;-48
2024/04/07 21:38:55;;;;;;;0.00;0.00;;;;;;;18.70;58.50;100902.41;15608094;28;20493;-51
2024/04/07 21:46:29;;;;;;;1.70;1.20;;;;;;;18.71;58.44;100909.50;15603232;28;20037;-48
2024/04/07 21:54:04;;;;;;;0.17;0.17;;;;;;;18.70;59.07;100904.28;15592993;28;20117;-53
2024/04/07 22:01:40;;;;;;;0.10;0.10;;;;;;;18.50;56.82;100896.75;15608339;28;20041;-53
2024/04/07 22:09:15;;;;;;;1.17;0.45;;;;;;;18.81;56.96;100893.25;15605820;28;20045;-48
2024/04/07 22:16:51;;;;;;;3.63;0.75;;;;;;;18.72;58.23;100883.94;15588704;28;20037;-49
2024/04/07 22:24:26;;;;;;;0.15;0.10;;;;;;;18.47;59.45;100881.81;15605476;28;20490;-50
2024/04/07 22:32:00;;;;;;;0.00;0.00;;;;;;;18.35;60.01;100881.97;15591816;28;20527;-50
2024/04/07 22:39:36;;;;;;;0.13;0.13;;;;;;;18.39;59.16;100867.88;15594700;28;20041;-48
2024/04/07 22:47:09;;;;;;;0.20;0.20;;;;;;;18.01;58.54;100856.94;15606004;28;20079;-52
2024/04/07 22:54:47;;;;;;;0.08;0.08;;;;;;;18.27;59.11;100873.47;15569478;28;20495;-50
2024/04/07 23:02:21;;;;;;;0.20;0.20;;;;;;;17.74;59.52;100813.47;15600501;28;20595;-54
2024/04/07 23:09:58;;;;;;;1.30;0.93;;;;;;;17.84;61.13;100846.16;15598130;28;20037;-50
2024/04/07 23:17:33;;;;;;;0.15;0.15;;;;;;;17.67;61.59;100820.16;15595863;28;20120;-51
2024/04/07 23:25:11;;;;;;;0.10;0.10;;;;;;;17.67;61.51;100799.25;15621427;28;20089;-49
2024/04/07 23:32:45;;;;;;;1.48;0.63;;;;;;;17.55;62.08;100782.31;15604274;28;20080;-52
2024/04/07 23:40:20;;;;;;;0.30;0.25;;;;;;;17.50;59.36;100769.50;15597274;28;20124;-52
2024/04/07 23:47:54;;;;;;;0.50;0.50;;;;;;;17.53;60.69;100762.72;15590642;28;20091;-49
2024/04/07 23:55:30;;;;;;;0.35;0.32;;;;;;;16.52;64.78;100801.03;15615739;28;20041;-49
